Startpagina
METAR-TAF:

METAR-TAF

Vliegvelden :

Nassau, Bahama's

Lynden Pindling International Airport

breedte: 25-03N, lengte: 077-28W, hoogte: 3 m

Actueel weer

Dit bericht is 21 minuten geleden gemaakt, om 23:00 UTC
Wind 5 kt uit het noordnoordoosten
Temperatuur 23°C
Vochtigheid 57%
Druk 1021 hPa
Zicht 10 km of meer
Verspreide wolken op 2000 ft
Gebroken wolken op 8000 ft
Gebroken wolken op 20000 ft

METAR: MYNN 192300Z 03005KT 9999 SCT020 BKN080 BKN200 23/14 A3014

Tijdstip: 18:21 (23:21 UTC)

Verwachting

Dit bericht is 7 uur en het 1 minuten geleden gemaakt, om 16:20 UTC
Verwachting geldig van 19 om 18 UTC tot 20 om 18 UTC
Wind 10 kt uit het noordoosten
Zicht 10 km of meer
Weinig wolken op 2000 ft
Gebroken wolken op 3000 ft

TAF: MYNN 191620Z 1918/2018 04010KT 9999 FEW020 BKN030

Waarnemingen en weersverwachtingen van meer dan 4000 vliegvelden (METAR en TAF).

De beschikbare stations zijn de gele en rode punten op de kaart.

Ga met uw muis naar het station om de naam te zien.

Klik dan om waarnemingen en weersverwachtingen te zien.

kaart wijzigen: klik op de groene knoppen met een zwart kruis om in te zoomen, op de groene knop met een streepje om uit te zoomen of op de groene pijlen voor aangrenzende kaarten.


METAR-TAF: